Data for 09/14/2006

Time Sea-Level Adjusted Pressure Absolute Pressure Temperature Relative Humidity Dew Point   
(mb) (inHg) (mb) (inHg) (C) (F) (%) (C) (F)
00:05 1009 29.8 838 24.75 14.8 58.6 29 -3.2 26.3
00:10 1009 29.8 838 24.75 14.5 58 29 -3.1 26.4
00:15 1009 29.8 838 24.75 14.3 57.8 29 -3.2 26.3
00:20 1009 29.8 838 24.75 14.3 57.7 30 -3.2 26.2
00:25 1009 29.8 838 24.75 14.2 57.6 29 -3.4 25.9
00:30 1009 29.8 838 24.75 14.1 57.4 29 -3.5 25.6
00:35 1009 29.8 838 24.75 14.1 57.3 29 -3.5 25.7
00:40 1009 29.8 838 24.75 14.1 57.5 29 -3.5 25.7
00:45 1009 29.8 838 24.75 14.2 57.5 29 -3.4 25.8
00:50 1009 29.8 838 24.75 13.9 57.1 29 -3.8 25.2
00:55 1009 29.8 838 24.75 13.7 56.6 29 -3.8 25.2
01:00 1009 29.8 838 24.75 13.8 56.8 30 -3.7 25.4
01:05 1009 29.8 838 24.75 13.9 57.1 30 -3.3 26
01:10 1009 29.8 838 24.75 14 57.3 29 -3.4 25.8
01:15 1009 29.8 838 24.75 14.2 57.5 31 -2.9 26.8
01:20 1009 29.8 838 24.75 14 57.3 31 -2.7 27.1
01:25 1009 29.8 838 24.75 13.2 55.7 33 -2.6 27.3
01:30 1009 29.8 838 24.75 12.7 54.9 40 -0.4 31.2
01:35 1009 29.8 838 24.75 12.8 55.1 33 -2.8 27
01:40 1009 29.8 838 24.75 12.2 54 34 -3 26.5
01:45 1009 29.8 838 24.75 12 53.7 34 -3.3 26
01:50 1009 29.8 838 24.75 11.8 53.3 35 -3.1 26.4
01:55 1009 29.8 838 24.75 11.6 52.8 35 -3.4 25.9
02:00 1009 29.8 838 24.75 12.1 53.7 33 -3.8 25.1
02:05 1009 29.8 838 24.75 12.6 54.8 31 -4.1 24.7
02:10 1009 29.8 838 24.75 12.7 54.9 31 -3.8 25.1
02:15 1009 29.8 838 24.75 12.8 55 30 -4.3 24.2
02:20 1009 29.8 838 24.75 12.9 55.2 30 -4 24.8
02:25 1009 29.8 838 24.75 13 55.5 31 -3.6 25.6
02:30 1009 29.8 838 24.75 12.7 54.9 31 -4.1 24.6
02:35 1009 29.8 838 24.75 12.5 54.5 31 -4.1 24.5
02:40 1009 29.8 838 24.75 12.2 53.9 32 -4.1 24.7
02:45 1008 29.77 838 24.75 11.9 53.5 33 -4 24.8
02:50 1008 29.77 838 24.75 11.6 52.9 33 -4.1 24.6
02:55 1008 29.77 838 24.75 11.8 53.2 32 -4.1 24.6
03:00 1008 29.77 837 24.72 11.9 53.4 32 -4.3 24.3
03:05 1008 29.77 837 24.72 12 53.5 32 -4.2 24.4
03:10 1008 29.77 837 24.72 12 53.7 32 -4.2 24.4
03:15 1008 29.77 837 24.72 12.4 54.3 33 -3.5 25.6
03:20 1008 29.77 837 24.72 12.5 54.5 34 -3 26.6
03:25 1008 29.77 837 24.72 12.6 54.7 34 -2.9 26.9
03:30 1008 29.77 837 24.72 12.7 54.9 35 -2.5 27.6
03:35 1008 29.77 837 24.72 13.2 55.7 35 -2 28.3
03:40 1008 29.77 837 24.72 13.6 56.4 34 -1.7 28.9
03:45 1008 29.77 837 24.72 13.7 56.7 35 -1.5 29.4
03:50 1008 29.77 837 24.72 13.7 56.7 35 -1.3 29.7
03:55 1008 29.77 837 24.72 13.7 56.7 35 -1.2 29.8
04:00 1008 29.77 837 24.72 13.8 56.8 36 -1.1 30
04:05 1008 29.77 837 24.72 13.8 56.8 36 -0.9 30.4
04:10 1007 29.74 837 24.72 13.8 56.9 36 -1 30.2
04:15 1007 29.74 837 24.72 13.9 57 36 -0.8 30.5
04:20 1007 29.74 836 24.69 13.9 57 36 -0.7 30.8
04:25 1007 29.74 836 24.69 13.9 57 37 -0.5 31.2
04:30 1007 29.74 836 24.69 13.8 56.9 37 -0.4 31.3
04:35 1007 29.74 836 24.69 13.8 56.9 38 -0.3 31.4
04:40 1007 29.74 836 24.69 13.8 56.8 38 -0.2 31.6
04:45 1007 29.74 836 24.69 13.8 56.8 38 -0.1 31.9
04:50 1007 29.74 836 24.69 13.8 56.8 39 0 32.1
04:55 1007 29.74 836 24.69 13.8 56.9 39 0.2 32.4
05:00 1007 29.74 836 24.69 13.7 56.7 39 0.2 32.4
05:05 1007 29.74 836 24.69 13.8 56.8 40 0.3 32.6
05:10 1006 29.71 836 24.69 13.8 56.8 40 0.4 32.7
05:15 1006 29.71 836 24.69 13.8 56.9 40 0.5 32.8
05:20 1006 29.71 835 24.66 13.9 57 40 0.5 33
05:25 1006 29.71 835 24.66 13.8 56.9 40 0.5 32.9
05:30 1006 29.71 835 24.66 13.9 57.1 40 0.6 33.1
05:35 1006 29.71 835 24.66 13.8 56.9 41 0.7 33.3
05:40 1006 29.71 835 24.66 13.9 57.1 40 0.8 33.4
05:45 1006 29.71 835 24.66 13.9 57 41 0.8 33.5
05:50 1006 29.71 835 24.66 14 57.2 41 1 33.8
05:55 1006 29.71 835 24.66 14 57.2 41 1.1 34
06:00 1006 29.71 835 24.66 13.9 57 42 1.2 34.2
06:05 1006 29.71 836 24.69 13.8 56.8 43 1.4 34.6
06:10 1006 29.71 835 24.66 13.6 56.5 44 1.5 34.7
06:15 1006 29.71 836 24.69 13.4 56 45 1.6 34.9
06:20 1007 29.74 836 24.69 13.3 55.9 45 1.6 34.9
06:25 1006 29.71 836 24.69 13.2 55.7 45 1.6 34.8
06:30 1006 29.71 836 24.69 13.1 55.5 46 1.7 35.1
06:35 1006 29.71 835 24.66 12.9 55.3 46 1.7 35.1
06:40 1006 29.71 835 24.66 13 55.3 46 1.7 35.1
06:45 1006 29.71 835 24.66 12.9 55.2 47 1.8 35.2
06:50 1006 29.71 835 24.66 12.8 55 47 1.8 35.3
06:55 1006 29.71 835 24.66 12.6 54.7 48 2 35.6
07:00 1006 29.71 835 24.66 12.5 54.4 48 1.9 35.4
07:05 1006 29.71 835 24.66 12.6 54.6 48 2 35.7
07:10 1005 29.68 835 24.66 12.6 54.7 48 2 35.7
07:15 1006 29.71 835 24.66 12.7 54.9 48 2.1 35.9
07:20 1006 29.71 835 24.66 12.6 54.6 48 2 35.6
07:25 1005 29.68 835 24.66 12.6 54.7 48 2.1 35.8
07:30 1006 29.71 835 24.66 12.6 54.7 49 2.2 36
07:35 1006 29.71 835 24.66 12.5 54.5 49 2.2 35.9
07:40 1006 29.71 836 24.69 12.4 54.4 50 2.3 36.1
07:45 1007 29.74 836 24.69 12.4 54.4 49 2.1 35.8
07:50 1006 29.71 835 24.66 12.5 54.6 48 2 35.7
07:55 1006 29.71 835 24.66 12.7 54.8 48 2.1 35.8
08:00 1006 29.71 835 24.66 12.6 54.6 49 2.2 36
08:05 1006 29.71 835 24.66 12.5 54.5 50 2.3 36.1
08:10 1006 29.71 835 24.66 12.4 54.4 49 2.2 35.9
08:15 1006 29.71 835 24.66 12.3 54.2 50 2.4 36.3
08:20 1006 29.71 835 24.66 12.4 54.3 50 2.3 36.2
08:25 1006 29.71 835 24.66 12.4 54.3 50 2.4 36.2
08:30 1006 29.71 835 24.66 12.4 54.3 50 2.4 36.3
08:35 1005 29.68 835 24.66 12.4 54.2 50 2.4 36.4
08:40 1005 29.68 835 24.66 12.3 54.1 51 2.5 36.4
08:45 1005 29.68 834 24.63 12.2 54 51 2.5 36.5
08:50 1005 29.68 834 24.63 12.2 54 51 2.5 36.4
08:55 1005 29.68 834 24.63 12.2 54 52 2.7 36.9
09:00 1005 29.68 834 24.63 12.2 53.9 52 2.7 36.9
09:05 1005 29.68 835 24.66 12.3 54.1 51 2.6 36.7
09:10 1006 29.71 835 24.66 12.3 54.2 51 2.5 36.6
09:15 1006 29.71 835 24.66 12.3 54.1 52 2.7 36.9
09:20 1006 29.71 835 24.66 12.1 53.9 53 2.9 37.2
09:25 1005 29.68 834 24.63 12.2 53.9 52 2.7 36.9
09:30 1005 29.68 834 24.63 12.3 54.2 51 2.6 36.7
09:35 1005 29.68 834 24.63 12.5 54.4 51 2.7 36.9
09:40 1005 29.68 835 24.66 12.3 54.1 52 2.7 36.9
09:45 1006 29.71 835 24.66 12.3 54.1 52 2.7 36.8
09:50 1006 29.71 835 24.66 12.4 54.3 51 2.7 36.8
09:55 1006 29.71 835 24.66 12.6 54.7 50 2.5 36.4
10:00 1006 29.71 835 24.66 13.2 55.7 49 2.6 36.7
10:05 1006 29.71 835 24.66 13.4 56.1 50 3.3 37.9
10:10 1006 29.71 835 24.66 13.2 55.7 52 3.7 38.7
10:15 1006 29.71 835 24.66 13.1 55.5 54 4.1 39.4
10:20 1006 29.71 835 24.66 13.2 55.7 55 4.3 39.8
10:25 1006 29.71 835 24.66 13.3 55.9 53 4 39.3
10:30 1006 29.71 835 24.66 13.9 57 52 4.3 39.7
10:35 1006 29.71 835 24.66 13.9 57.1 54 4.7 40.5
10:40 1006 29.71 835 24.66 13.8 56.8 54 4.8 40.7
10:45 1006 29.71 835 24.66 14 57.2 54 5 41
10:50 1006 29.71 835 24.66 13.8 56.9 53 4.6 40.3
10:55 1006 29.71 835 24.66 14.2 57.6 54 5 41.1
11:00 1006 29.71 836 24.69 14 57.2 54 5 41
11:05 1006 29.71 836 24.69 13.8 56.9 54 4.8 40.6
11:10 1007 29.74 836 24.69 14.1 57.4 53 4.8 40.6
11:15 1007 29.74 836 24.69 14.3 57.7 53 4.9 40.8
11:20 1007 29.74 836 24.69 14.4 57.9 53 5.1 41.2
11:25 1007 29.74 836 24.69 14.1 57.3 53 4.8 40.6
11:30 1007 29.74 836 24.69 14.1 57.3 55 5.1 41.2
11:35 1007 29.74 836 24.69 14.2 57.5 52 4.7 40.4
11:40 1007 29.74 836 24.69 14.5 58 51 4.5 40.2
11:45 1007 29.74 836 24.69 14.8 58.7 49 4.4 39.8
11:50 1007 29.74 836 24.69 14.7 58.5 52 5.1 41.2
11:55 1007 29.74 837 24.72 14.2 57.6 54 5 41
12:00 1007 29.74 837 24.72 13.8 56.9 55 5 41.1
12:05 1007 29.74 837 24.72 13.6 56.4 56 5 41
12:10 1008 29.77 837 24.72 13.5 56.3 55 4.6 40.3
12:15 1008 29.77 837 24.72 13.8 56.8 53 4.4 39.9
12:20 1008 29.77 837 24.72 14.1 57.4 52 4.6 40.3
12:25 1008 29.77 837 24.72 13.8 56.8 53 4.5 40.2
12:30 1008 29.77 837 24.72 13.6 56.5 53 4.2 39.5
12:35 1008 29.77 837 24.72 14.1 57.3 52 4.3 39.8
12:40 1008 29.77 837 24.72 14.4 57.9 50 4.3 39.8
12:45 1008 29.77 837 24.72 14.3 57.7 50 4.1 39.5
12:50 1008 29.77 837 24.72 14.4 58 49 4 39.3
12:55 1008 29.77 837 24.72 15 59.1 47 3.8 38.9
13:00 1008 29.77 837 24.72 15.4 59.6 46 4 39.1
13:05 1007 29.74 837 24.72 15.2 59.3 47 4 39.2
13:10 1007 29.74 837 24.72 15 59 46 3.4 38.2
13:15 1007 29.74 836 24.69 15.1 59.2 47 3.9 39
13:20 1007 29.74 837 24.72 14.3 57.8 49 4 39.1
13:25 1007 29.74 836 24.69 14.4 57.9 48 3.6 38.5
13:30 1007 29.74 836 24.69 14.6 58.3 48 3.7 38.6
13:35 1007 29.74 836 24.69 15.7 60.3 44 3.5 38.4
13:40 1007 29.74 837 24.72 15.1 59.1 46 3.7 38.6
13:45 1007 29.74 837 24.72 15.1 59.1 45 3.3 37.9
13:50 1008 29.77 837 24.72 14.6 58.2 47 3.5 38.2
13:55 1008 29.77 837 24.72 14.3 57.7 48 3.5 38.2
14:00 1008 29.77 837 24.72 14.8 58.6 45 3.2 37.7
14:05 1008 29.77 837 24.72 15 58.9 46 3.6 38.5
14:10 1008 29.77 837 24.72 15.4 59.7 44 3.3 37.9
14:15 1008 29.77 837 24.72 15.8 60.4 44 3.8 38.8
14:20 1008 29.77 837 24.72 15.8 60.4 46 4.4 40
14:25 1008 29.77 837 24.72 15.5 59.8 46 4 39.2
14:30 1008 29.77 837 24.72 15.7 60.2 45 3.9 39
14:35 1008 29.77 837 24.72 15.7 60.2 46 4.2 39.5
14:40 1008 29.77 837 24.72 15.5 59.9 46 4 39.3
14:45 1008 29.77 837 24.72 15.3 59.6 46 3.8 38.8
14:50 1008 29.77 837 24.72 14.8 58.7 48 3.9 39
14:55 1007 29.74 837 24.72 14.8 58.6 48 4 39.2
15:00 1007 29.74 837 24.72 15.1 59.2 52 5.3 41.6
15:05 1007 29.74 837 24.72 15.9 60.5 44 3.7 38.6
15:10 1007 29.74 836 24.69 16.3 61.3 43 3.7 38.7
15:15 1007 29.74 836 24.69 16.5 61.6 43 4 39.2
15:20 1007 29.74 837 24.72 16.4 61.4 44 4.2 39.6
15:25 1007 29.74 836 24.69 16.3 61.3 45 4.4 39.9
15:30 1007 29.74 836 24.69 16 60.8 47 4.8 40.6
15:35 1007 29.74 836 24.69 16.5 61.7 43 3.9 38.9
15:40 1007 29.74 836 24.69 17 62.6 42 4 39.3
15:45 1007 29.74 836 24.69 17.1 62.8 41 3.9 39
15:50 1007 29.74 836 24.69 17.2 63 41 4.1 39.4
15:55 1007 29.74 836 24.69 16 60.8 45 4.2 39.5
16:00 1007 29.74 836 24.69 16.1 60.9 45 4.2 39.6
16:05 1007 29.74 836 24.69 16.4 61.5 44 4 39.3
16:10 1007 29.74 836 24.69 16.5 61.7 44 4.2 39.6
16:15 1007 29.74 836 24.69 16.7 62 44 4.5 40.1
16:20 1007 29.74 836 24.69 16.6 62 43 4.2 39.5
16:25 1007 29.74 836 24.69 16.8 62.2 44 4.4 39.9
16:30 1007 29.74 836 24.69 17.2 63 41 4 39.1
16:35 1007 29.74 836 24.69 17.4 63.4 41 4.2 39.6
16:40 1007 29.74 836 24.69 17.5 63.6 41 4.2 39.5
16:45 1007 29.74 836 24.69 17.7 63.8 40 4 39.2
16:50 1006 29.71 836 24.69 17.5 63.5 40 3.9 39
16:55 1006 29.71 836 24.69 17.6 63.7 40 4 39.1
17:00 1006 29.71 835 24.66 17.5 63.4 40 3.8 38.9
17:05 1006 29.71 835 24.66 17.4 63.2 39 3.4 38.2
17:10 1006 29.71 836 24.69 17.1 62.8 40 3.7 38.6
17:15 1006 29.71 836 24.69 16.8 62.3 41 3.8 38.8
17:20 1007 29.74 836 24.69 16.7 62 42 3.8 38.9
17:25 1007 29.74 836 24.69 17.1 62.8 41 3.9 39
17:30 1007 29.74 836 24.69 17.2 63 39 3.3 38
17:35 1007 29.74 836 24.69 17.1 62.8 41 4 39.1
17:40 1007 29.74 836 24.69 17.1 62.8 39 3.2 37.8
17:45 1007 29.74 836 24.69 17 62.6 39 3.2 37.7
17:50 1007 29.74 836 24.69 16.8 62.3 40 3.4 38.1
17:55 1007 29.74 836 24.69 16.6 61.8 45 4.7 40.4
18:00 1007 29.74 836 24.69 16 60.8 48 5.1 41.1
18:05 1007 29.74 836 24.69 15.8 60.4 49 5.2 41.4
18:10 1007 29.74 836 24.69 15.4 59.7 50 5.2 41.3
18:15 1007 29.74 836 24.69 15.1 59.1 51 5 40.9
18:20 1007 29.74 836 24.69 14.7 58.4 52 4.9 40.9
18:25 1007 29.74 837 24.72 14.3 57.7 53 4.8 40.6
18:30 1007 29.74 837 24.72 14.1 57.3 53 4.6 40.3
18:35 1008 29.77 837 24.72 13.9 57.1 54 4.7 40.5
18:40 1008 29.77 837 24.72 13.7 56.6 54 4.7 40.5
18:45 1008 29.77 837 24.72 13.4 56.2 55 4.7 40.4
18:50 1008 29.77 837 24.72 13.4 56 55 4.4 40
18:55 1008 29.77 837 24.72 13.2 55.7 55 4.3 39.7
19:00 1008 29.77 837 24.72 13 55.4 55 4.1 39.4
19:05 1008 29.77 837 24.72 13.1 55.6 55 4.3 39.8
19:10 1008 29.77 837 24.72 12.9 55.2 56 4.4 39.9
19:15 1008 29.77 837 24.72 12.8 55 56 4.2 39.6
19:20 1008 29.77 837 24.72 12.6 54.7 57 4.4 39.9
19:25 1008 29.77 837 24.72 12.3 54.2 58 4.2 39.6
19:30 1008 29.77 838 24.75 12.1 53.8 58 4.2 39.5
19:35 1008 29.77 837 24.72 12 53.6 58 4.1 39.3
19:40 1008 29.77 837 24.72 11.9 53.4 59 4.1 39.4
19:45 1008 29.77 837 24.72 11.7 53.1 59 4.1 39.3
19:50 1008 29.77 837 24.72 11.6 52.8 59 3.9 39.1
19:55 1008 29.77 837 24.72 11.5 52.7 62 4.5 40
20:00 1008 29.77 837 24.72 11.3 52.4 64 4.7 40.5
20:05 1008 29.77 837 24.72 11.1 52 65 4.8 40.7
20:10 1008 29.77 837 24.72 11 51.8 65 4.8 40.6
20:15 1008 29.77 837 24.72 11 51.8 65 4.7 40.5
20:20 1008 29.77 837 24.72 10.9 51.5 66 4.7 40.5
20:25 1008 29.77 837 24.72 10.8 51.5 65 4.7 40.4
20:30 1008 29.77 837 24.72 10.9 51.6 65 4.7 40.4
20:35 1008 29.77 837 24.72 10.8 51.4 66 4.8 40.6
20:40 1008 29.77 837 24.72 10.7 51.2 66 4.7 40.4
20:45 1008 29.77 837 24.72 10.7 51.2 66 4.7 40.4
20:50 1008 29.77 837 24.72 10.7 51.2 66 4.6 40.3
20:55 1008 29.77 837 24.72 10.8 51.4 65 4.5 40.1
21:00 1008 29.77 837 24.72 10.8 51.5 65 4.6 40.2
21:05 1008 29.77 837 24.72 10.6 51.1 66 4.6 40.3
21:10 1008 29.77 837 24.72 10.4 50.6 66 4.3 39.7
21:15 1008 29.77 837 24.72 10.5 50.8 65 4.1 39.4
21:20 1008 29.77 837 24.72 10.3 50.5 66 4.2 39.6
21:25 1008 29.77 837 24.72 10.1 50.1 67 4.2 39.6
21:30 1008 29.77 837 24.72 10 50 67 4.2 39.5
21:35 1008 29.77 837 24.72 9.9 49.9 67 4.2 39.6
21:40 1008 29.77 837 24.72 9.9 49.9 68 4.3 39.8
21:45 1008 29.77 837 24.72 9.9 49.9 68 4.4 39.9
21:50 1008 29.77 837 24.72 9.9 49.8 68 4.2 39.6
21:55 1008 29.77 837 24.72 9.9 49.7 68 4.3 39.7
22:00 1008 29.77 837 24.72 9.9 49.8 68 4.3 39.8
22:05 1008 29.77 837 24.72 10 49.9 67 4.2 39.6
22:10 1008 29.77 837 24.72 10.2 50.4 67 4.4 39.9
22:15 1008 29.77 837 24.72 10.1 50.2 68 4.4 40
22:20 1008 29.77 837 24.72 10.2 50.3 66 4.2 39.6
22:25 1008 29.77 837 24.72 10.2 50.3 67 4.4 40
22:30 1008 29.77 837 24.72 10 50 68 4.3 39.8
22:35 1008 29.77 837 24.72 9.9 49.9 68 4.3 39.8
22:40 1008 29.77 837 24.72 9.8 49.7 69 4.4 39.9
22:45 1008 29.77 837 24.72 9.6 49.2 70 4.4 39.9
22:50 1008 29.77 837 24.72 9.6 49.2 69 4.2 39.6
22:55 1008 29.77 837 24.72 9.8 49.6 69 4.3 39.8
23:00 1008 29.77 837 24.72 9.6 49.3 70 4.5 40.1
23:05 1008 29.77 837 24.72 9.4 49 71 4.5 40.2
23:10 1008 29.77 837 24.72 9.3 48.8 72 4.5 40.2
23:15 1008 29.77 837 24.72 9.3 48.7 72 4.5 40.1
23:20 1008 29.77 837 24.72 9.3 48.8 72 4.5 40.1
23:25 1008 29.77 837 24.72 9.5 49.1 71 4.5 40
23:30 1007 29.74 837 24.72 9.4 48.9 71 4.3 39.8
23:35 1007 29.74 837 24.72 9.4 49 70 4.3 39.7
23:40 1007 29.74 837 24.72 9.6 49.3 70 4.4 40
23:45 1008 29.77 837 24.72 9.3 48.8 72 4.5 40.2
23:50 1008 29.77 837 24.72 9.3 48.8 72 4.5 40
23:55 1008 29.77 837 24.72 9.2 48.5 72 4.5 40
24:00 1008 29.77 837 24.72 9.2 48.6 72 4.5 40